Highspeed 4 — SWJD — position and weather

sailwx.info

Track history (hours):
 
Tides and Currents Weather Stations Pressure Air Temp Water Temp Dewpoint Dewpoint Depression Visibility Wind Speed Wind Dir Waves Ship Positions

Highspeed 4

Last reported at 2017-Sep-22 01:58 UTC. Time now 2017-Sep-22 04:37 UTC.
Position N 37°57' E 023°38'.

Length 93 m; draft 3.9 m.

Type: High speed craft. MMSI: 239658000.

Date/timePositionNaut miles runAvg speedWind from/ knotsBaromVisibWave heightAir tempDewpointWater temp
2017-Sep-22 01:58N 37°57' E 023°38'0 0.0
2017-Sep-22 01:28N 37°57' E 023°38'0 0.0
2017-Sep-22 00:58N 37°57' E 023°38'0 0.0
2017-Sep-22 00:28N 37°57' E 023°38'0 0.0
2017-Sep-21 23:58N 37°57' E 023°38'0 0.0
2017-Sep-21 23:28N 37°57' E 023°38'0 0.0
2017-Sep-21 22:58N 37°57' E 023°38'0 0.0
2017-Sep-21 22:28N 37°57' E 023°38'0 0.0
2017-Sep-21 21:58N 37°57' E 023°38'0 0.0
2017-Sep-21 21:28N 37°57' E 023°38'0 0.0
2017-Sep-21 20:58N 37°57' E 023°38'0 0.0
2017-Sep-21 20:28N 37°57' E 023°38'0 0.0
2017-Sep-21 19:58N 37°57' E 023°38'0 0.0
2017-Sep-21 19:28N 37°57' E 023°38'0 0.0
2017-Sep-21 18:58N 37°57' E 023°38'0 0.0
2017-Sep-21 18:28N 37°57' E 023°38'0 0.8
2017-Sep-21 18:01N 37°56' E 023°38'918.1
2017-Sep-21 17:31N 37°48' E 023°41'5933.6
2017-Sep-21 15:45N 37°18' E 024°46'934.6
2017-Sep-21 15:31N 37°13' E 024°54'1422.0
2017-Sep-21 14:52N 37°05' E 025°09'821.5
2017-Sep-21 14:31N 37°10' E 025°16'611.1
2017-Sep-21 14:01N 37°07' E 025°22'8 1.4
2017-Sep-21 08:37N 36°59' E 025°21'436.9
2017-Sep-21 08:31N 37°03' E 025°19'612.8
2017-Sep-21 08:01N 37°09' E 025°19'912.9
2017-Sep-21 07:18N 37°05' E 025°08'929.3
2017-Sep-21 07:00N 37°10' E 025°00'5234.1
2017-Sep-21 05:28N 37°35' E 024°02'1634.7
2017-Sep-21 05:01N 37°40' E 023°43'1631.6
2017-Sep-21 04:30N 37°55' E 023°36'2 4.1
2017-Sep-21 03:59N 37°57' E 023°38'0 0.0
2017-Sep-21 03:29N 37°57' E 023°38'0 0.0
2017-Sep-21 02:59N 37°57' E 023°38'0 0.0
2017-Sep-21 02:29N 37°57' E 023°38'0 0.0
2017-Sep-21 01:59N 37°57' E 023°38'0 0.0
2017-Sep-21 01:29N 37°57' E 023°38'0 0.0
2017-Sep-21 00:59N 37°57' E 023°38'0 0.0
2017-Sep-21 00:29N 37°57' E 023°38'0 0.0
2017-Sep-20 23:59N 37°57' E 023°38'0 0.0
2017-Sep-20 23:26N 37°57' E 023°38'0 0.0
2017-Sep-20 22:59N 37°57' E 023°38'0 0.0
2017-Sep-20 22:29N 37°57' E 023°38'0 0.0
2017-Sep-20 21:59N 37°57' E 023°38'0 0.0
2017-Sep-20 21:29N 37°57' E 023°38'0 0.0
2017-Sep-20 20:59N 37°57' E 023°38'0 0.0
2017-Sep-20 20:29N 37°57' E 023°38'0 0.0
2017-Sep-20 19:59N 37°57' E 023°38'0 0.0
2017-Sep-20 19:29N 37°57' E 023°38'0 0.0
2017-Sep-20 18:59N 37°57' E 023°38'0 0.0
2017-Sep-20 18:29N 37°57' E 023°38'1 2.2
2017-Sep-20 18:01N 37°56' E 023°37'1631.2
2017-Sep-20 17:31N 37°42' E 023°45'1733.4
2017-Sep-20 17:00N 37°37' E 024°05'3730.6
2017-Sep-20 15:48N 37°19' E 024°45'1034.3
2017-Sep-20 15:31N 37°13' E 024°56'1215.7
2017-Sep-20 14:46N 37°06' E 025°08'1114.8
2017-Sep-20 14:01N 37°06' E 025°22'7 1.4
2017-Sep-20 08:39N 36°59' E 025°21'534.3
2017-Sep-20 08:31N 37°04' E 025°19'612.4
2017-Sep-20 08:00N 37°10' E 025°18'812.1
2017-Sep-20 07:19N 37°05' E 025°09'724.2
2017-Sep-20 07:01N 37°10' E 025°02'5433.7
2017-Sep-20 05:24N 37°35' E 024°01'1434.7
2017-Sep-20 05:01N 37°39' E 023°45'1632.3
2017-Sep-20 04:31N 37°54' E 023°36'4 6.6
2017-Sep-20 03:58N 37°57' E 023°38'0 0.0
2017-Sep-20 03:28N 37°57' E 023°38'0 0.0
2017-Sep-20 02:58N 37°57' E 023°38'0 0.0
2017-Sep-20 02:28N 37°57' E 023°38'0 0.0
2017-Sep-20 01:58N 37°57' E 023°38'0 0.0
2017-Sep-20 01:28N 37°57' E 023°38'0 0.0
2017-Sep-20 00:58N 37°57' E 023°38'0 0.0
2017-Sep-20 00:28N 37°57' E 023°38'0 0.0
2017-Sep-19 23:58N 37°57' E 023°38'0 0.0
2017-Sep-19 23:28N 37°57' E 023°38'0 0.0
2017-Sep-19 22:58N 37°57' E 023°38'0 0.0
2017-Sep-19 22:28N 37°57' E 023°38'0 0.0
2017-Sep-19 21:58N 37°57' E 023°38'0 0.0
2017-Sep-19 21:28N 37°57' E 023°38'0 0.0
2017-Sep-19 20:58N 37°57' E 023°38'0 0.0
2017-Sep-19 20:28N 37°57' E 023°38'0 0.0
2017-Sep-19 19:58N 37°57' E 023°38'0 0.0
2017-Sep-19 19:28N 37°57' E 023°38'0 0.0
2017-Sep-19 18:58N 37°57' E 023°38'0 0.0
2017-Sep-19 18:28N 37°57' E 023°38'0 0.1
2017-Sep-19 18:00N 37°57' E 023°38'611.9
2017-Sep-19 17:31N 37°51' E 023°40'1733.6
2017-Sep-19 17:00N 37°39' E 023°54'1835.5
2017-Sep-19 16:30N 37°32' E 024°15'2835.1
2017-Sep-19 15:42N 37°18' E 024°46'735.6
2017-Sep-19 15:31N 37°14' E 024°53'1519.5
2017-Sep-19 14:44N 37°05' E 025°08'521.9
2017-Sep-19 14:31N 37°09' E 025°12'816.7
2017-Sep-19 14:01N 37°07' E 025°22'7 1.4
2017-Sep-19 08:39N 36°59' E 025°21'533.7
2017-Sep-19 08:31N 37°04' E 025°18'611.2
2017-Sep-19 08:01N 37°09' E 025°19'912.2
2017-Sep-19 07:15N 37°05' E 025°08'627.7
2017-Sep-19 07:01N 37°09' E 025°02'5434.0
2017-Sep-19 05:25N 37°35' E 024°02'1434.6
2017-Sep-19 05:00N 37°39' E 023°45'1633.3
2017-Sep-19 04:31N 37°54' E 023°36'3 6.0
2017-Sep-19 03:59N 37°57' E 023°38'0 0.0
2017-Sep-19 03:29N 37°57' E 023°38'0 0.0
2017-Sep-19 02:59N 37°57' E 023°38'0 0.0
2017-Sep-19 02:29N 37°57' E 023°38'0 0.0
2017-Sep-19 01:59N 37°57' E 023°38'0 0.0
2017-Sep-19 01:29N 37°57' E 023°38'0 0.0
2017-Sep-19 00:59N 37°57' E 023°38'0 0.0
2017-Sep-19 00:29N 37°57' E 023°38'0 0.0
2017-Sep-18 23:59N 37°57' E 023°38'0 0.0
2017-Sep-18 23:29N 37°57' E 023°38'0 0.0
2017-Sep-18 22:59N 37°57' E 023°38'0 0.0
2017-Sep-18 22:29N 37°57' E 023°38'0 0.0
2017-Sep-18 21:59N 37°57' E 023°38'0 0.0
2017-Sep-18 21:29N 37°57' E 023°38'0 0.0
2017-Sep-18 20:59N 37°57' E 023°38'0 0.0
2017-Sep-18 20:29N 37°57' E 023°38'0 0.0
2017-Sep-18 19:59N 37°57' E 023°38'0 0.0
2017-Sep-18 19:29N 37°57' E 023°38'0 0.0
2017-Sep-18 18:59N 37°57' E 023°38'0 0.0
2017-Sep-18 18:31N 37°57' E 023°38'0 0.0
2017-Sep-18 18:01N 37°57' E 023°38'611.2
2017-Sep-18 17:31N 37°51' E 023°40'1733.5
2017-Sep-18 17:01N 37°39' E 023°54'4635.1
2017-Sep-18 15:42N 37°18' E 024°46'735.8
2017-Sep-18 15:31N 37°14' E 024°53'1520.5
2017-Sep-18 14:45N 37°05' E 025°08'522.0
2017-Sep-18 14:30N 37°09' E 025°13'815.7
2017-Sep-18 14:01N 37°07' E 025°22'7 1.4
2017-Sep-18 08:39N 36°59' E 025°21'534.2
2017-Sep-18 08:31N 37°04' E 025°19'611.4
2017-Sep-18 08:01N 37°09' E 025°18'916.2
2017-Sep-18 07:28N 37°05' E 025°09'612.1
2017-Sep-18 07:00N 37°08' E 025°03'1734.9
2017-Sep-18 06:30N 37°19' E 024°46'3534.4
2017-Sep-18 05:30N 37°34' E 024°06'1735.0
2017-Sep-18 05:00N 37°39' E 023°46'1733.0
2017-Sep-18 04:30N 37°54' E 023°36'3 5.7
2017-Sep-18 03:59N 37°57' E 023°38'0 0.0
2017-Sep-18 03:26N 37°57' E 023°38'0 0.0
2017-Sep-18 02:56N 37°57' E 023°38'0 0.0
2017-Sep-18 02:29N 37°57' E 023°38'0 0.0
2017-Sep-18 01:59N 37°57' E 023°38'0 0.0
2017-Sep-18 01:29N 37°57' E 023°38'0 0.0
2017-Sep-18 00:59N 37°57' E 023°38'0 0.0
2017-Sep-18 00:23N 37°57' E 023°38'0 0.0
2017-Sep-17 23:59N 37°57' E 023°38'0 0.0
2017-Sep-17 23:26N 37°57' E 023°38'0 0.0
2017-Sep-17 22:59N 37°57' E 023°38'0 0.0
2017-Sep-17 22:29N 37°57' E 023°38'0 0.0
2017-Sep-17 21:59N 37°57' E 023°38'0 0.0
2017-Sep-17 21:29N 37°57' E 023°38'0 0.0
2017-Sep-17 20:59N 37°57' E 023°38'0 0.0
2017-Sep-17 20:29N 37°57' E 023°38'0 0.0
2017-Sep-17 19:59N 37°57' E 023°38'0 0.0
2017-Sep-17 19:29N 37°57' E 023°38'0 0.0
2017-Sep-17 18:59N 37°57' E 023°38'0 0.0
2017-Sep-17 18:29N 37°57' E 023°38'0 0.2
2017-Sep-17 18:01N 37°57' E 023°38'919.0
2017-Sep-17 17:31N 37°47' E 023°42'1632.5
2017-Sep-17 17:01N 37°37' E 023°57'4333.8
2017-Sep-17 15:45N 37°18' E 024°46'834.6
2017-Sep-17 15:31N 37°13' E 024°54'1417.6
2017-Sep-17 14:42N 37°05' E 025°08'522.7
2017-Sep-17 14:28N 37°09' E 025°13'817.8
2017-Sep-17 14:01N 37°06' E 025°22'7 1.4
2017-Sep-17 08:39N 36°59' E 025°21'535.7
2017-Sep-17 08:31N 37°04' E 025°19'612.0
2017-Sep-17 08:01N 37°10' E 025°18'911.8
2017-Sep-17 07:14N 37°05' E 025°08'627.2
2017-Sep-17 07:01N 37°09' E 025°02'5534.0
2017-Sep-17 05:24N 37°35' E 024°02'1435.1
2017-Sep-17 05:00N 37°40' E 023°45'1632.5
2017-Sep-17 04:31N 37°54' E 023°36'3 6.1
2017-Sep-17 04:00N 37°57' E 023°38'0 0.0
2017-Sep-17 03:30N 37°57' E 023°38'0 0.0
2017-Sep-17 03:00N 37°57' E 023°38'0 0.0
2017-Sep-17 02:30N 37°57' E 023°38'0 0.0
2017-Sep-17 02:00N 37°57' E 023°38'0 0.0
2017-Sep-17 01:30N 37°57' E 023°38'0 0.0
2017-Sep-17 01:00N 37°57' E 023°38'0 0.0
2017-Sep-17 00:30N 37°57' E 023°38'0 0.0
2017-Sep-17 00:00N 37°57' E 023°38'0 0.0
2017-Sep-16 23:30N 37°57' E 023°38'0 0.0
2017-Sep-16 23:00N 37°57' E 023°38'0 0.0
2017-Sep-16 22:30N 37°57' E 023°38'0 0.0
2017-Sep-16 22:00N 37°57' E 023°38'0 0.0
2017-Sep-16 21:30N 37°57' E 023°38'0 0.0
2017-Sep-16 21:00N 37°57' E 023°38'0 0.0
2017-Sep-16 20:30N 37°57' E 023°38'0 0.0
2017-Sep-16 20:00N 37°57' E 023°38'0 0.0
2017-Sep-16 19:30N 37°57' E 023°38'0 0.0
2017-Sep-16 19:00N 37°57' E 023°38'0 0.0
2017-Sep-16 18:30N 37°57' E 023°38'0 0.0
2017-Sep-16 18:00N 37°57' E 023°38'5 9.7
2017-Sep-16 17:31N 37°52' E 023°39'1734.3
2017-Sep-16 17:00N 37°39' E 023°53'4735.5
2017-Sep-16 15:41N 37°17' E 024°46'636.0
2017-Sep-16 15:31N 37°14' E 024°52'1619.3
2017-Sep-16 14:42N 37°05' E 025°08'522.3
2017-Sep-16 14:29N 37°09' E 025°12'817.6
2017-Sep-16 14:01N 37°06' E 025°22'7 1.4
2017-Sep-16 08:38N 36°59' E 025°21'434.7
2017-Sep-16 08:31N 37°03' E 025°19'612.0
2017-Sep-16 08:01N 37°09' E 025°19'912.5
2017-Sep-16 07:17N 37°05' E 025°09'725.6
2017-Sep-16 07:01N 37°09' E 025°01'5433.8
2017-Sep-16 05:25N 37°35' E 024°02'1434.5
2017-Sep-16 05:00N 37°40' E 023°45'1632.2
2017-Sep-16 04:31N 37°54' E 023°36'3 5.1
2017-Sep-16 03:52N 37°57' E 023°38'0 0.0
2017-Sep-16 03:28N 37°57' E 023°38'0 0.0
2017-Sep-16 02:58N 37°57' E 023°38'0 0.0
2017-Sep-16 02:28N 37°57' E 023°38'0 0.0
2017-Sep-16 01:58N 37°57' E 023°38'0 0.0
2017-Sep-16 01:28N 37°57' E 023°38'0 0.0
2017-Sep-16 00:58N 37°57' E 023°38'0 0.0
2017-Sep-16 00:28N 37°57' E 023°38'0 0.0
2017-Sep-15 23:58N 37°57' E 023°38'0 0.0
2017-Sep-15 23:28N 37°57' E 023°38'0 0.0
2017-Sep-15 22:58N 37°57' E 023°38'0 0.0
2017-Sep-15 22:28N 37°57' E 023°38'0 0.0
2017-Sep-15 21:58N 37°57' E 023°38'0 0.0
2017-Sep-15 21:25N 37°57' E 023°38'0 0.0
2017-Sep-15 20:58N 37°57' E 023°38'0 0.0
2017-Sep-15 20:28N 37°57' E 023°38'0 0.0
2017-Sep-15 19:58N 37°57' E 023°38'0 0.0
2017-Sep-15 19:28N 37°57' E 023°38'0 0.0
2017-Sep-15 18:58N 37°57' E 023°38'0 0.0
2017-Sep-15 18:28N 37°57' E 023°38'0 0.0
2017-Sep-15 18:00N 37°57' E 023°38'714.3
2017-Sep-15 17:31N 37°50' E 023°40'1733.4
2017-Sep-15 17:00N 37°38' E 023°55'4534.8
2017-Sep-15 15:44N 37°18' E 024°46'835.2
2017-Sep-15 15:31N 37°14' E 024°53'1518.9
2017-Sep-15 14:44N 37°05' E 025°08'521.4
2017-Sep-15 14:30N 37°09' E 025°12'817.1
2017-Sep-15 14:00N 37°06' E 025°22'7 1.4
2017-Sep-15 08:38N 36°59' E 025°21'435.0
2017-Sep-15 08:31N 37°03' E 025°19'612.8
2017-Sep-15 08:01N 37°10' E 025°18'912.8
2017-Sep-15 07:18N 37°05' E 025°08'722.9
2017-Sep-15 07:01N 37°09' E 025°02'5533.5
2017-Sep-15 05:22N 37°35' E 024°01'1234.2
2017-Sep-15 05:00N 37°39' E 023°46'1632.9
2017-Sep-15 04:31N 37°53' E 023°36'4 7.4
2017-Sep-15 04:00N 37°57' E 023°38'0 0.0
2017-Sep-15 03:27N 37°57' E 023°38'0 0.0
2017-Sep-15 03:00N 37°57' E 023°38'0 0.0
2017-Sep-15 02:30N 37°57' E 023°38'0 0.0
2017-Sep-15 01:57N 37°57' E 023°38'0 0.0
2017-Sep-15 01:30N 37°57' E 023°38'0 0.0
2017-Sep-15 01:00N 37°57' E 023°38'0 0.0
2017-Sep-15 00:30N 37°57' E 023°38'0 0.0
2017-Sep-15 00:00N 37°57' E 023°38'0 0.0
2017-Sep-14 23:30N 37°57' E 023°38'0 0.0
2017-Sep-14 23:00N 37°57' E 023°38'0 0.0
2017-Sep-14 22:30N 37°57' E 023°38'0 0.0
2017-Sep-14 22:00N 37°57' E 023°38'0 0.0
2017-Sep-14 21:27N 37°57' E 023°38'0 0.0
2017-Sep-14 21:00N 37°57' E 023°38'0 0.0
2017-Sep-14 20:27N 37°57' E 023°38'0 0.0
2017-Sep-14 20:00N 37°57' E 023°38'0 0.0
2017-Sep-14 19:30N 37°57' E 023°38'0 0.0
2017-Sep-14 19:00N 37°57' E 023°38'0 0.0
2017-Sep-14 18:30N 37°57' E 023°38'0 0.0
2017-Sep-14 18:01N 37°57' E 023°38'611.7
2017-Sep-14 17:31N 37°51' E 023°40'1733.7
2017-Sep-14 17:01N 37°39' E 023°54'4635.1
2017-Sep-14 15:42N 37°18' E 024°46'735.4
2017-Sep-14 15:31N 37°14' E 024°53'1519.6
2017-Sep-14 14:43N 37°05' E 025°08'521.5
2017-Sep-14 14:30N 37°09' E 025°12'816.9
2017-Sep-14 14:01N 37°06' E 025°22'7 1.3
2017-Sep-14 08:37N 36°59' E 025°21'436.6
2017-Sep-14 08:30N 37°03' E 025°19'713.2
2017-Sep-14 08:01N 37°09' E 025°19'912.0
2017-Sep-14 07:16N 37°05' E 025°09'727.9
2017-Sep-14 07:01N 37°09' E 025°01'5433.9
2017-Sep-14 05:25N 37°35' E 024°01'1434.8
2017-Sep-14 05:00N 37°40' E 023°44'1531.4
2017-Sep-14 04:30N 37°54' E 023°37'3 1.9
2017-Sep-14 03:03N 37°57' E 023°38'0 0.0
2017-Sep-13 23:27N 37°57' E 023°38'0 0.0
2017-Sep-13 19:18N 37°57' E 023°38'0 0.0
2017-Sep-13 18:51N 37°57' E 023°38'0 0.0
2017-Sep-13 18:30N 37°57' E 023°38'0 0.0
2017-Sep-13 18:00N 37°57' E 023°38'611.7
2017-Sep-13 17:31N 37°51' E 023°39'1733.7
2017-Sep-13 17:00N 37°39' E 023°54'4635.1
2017-Sep-13 15:41N 37°18' E 024°46'736.0
2017-Sep-13 15:31N 37°14' E 024°53'1520.0
2017-Sep-13 14:44N 37°05' E 025°09'519.2
2017-Sep-13 14:30N 37°09' E 025°12'917.8
2017-Sep-13 14:01N 37°06' E 025°22'7 1.3
2017-Sep-13 08:38N 36°59' E 025°21'536.2
2017-Sep-13 08:31N 37°03' E 025°19'713.4
2017-Sep-13 08:01N 37°10' E 025°19'1013.1
2017-Sep-13 07:15N 37°05' E 025°09'626.8
2017-Sep-13 07:01N 37°09' E 025°02'5934.2
2017-Sep-13 05:18N 37°36' E 023°57'1035.1
2017-Sep-13 05:00N 37°40' E 023°45'1631.6
2017-Sep-13 04:31N 37°54' E 023°36'3 3.6
2017-Sep-13 03:37N 37°57' E 023°38'0 0.0
2017-Sep-13 03:25N 37°57' E 023°38'0 0.0
2017-Sep-13 02:55N 37°57' E 023°38'0 0.0
2017-Sep-13 02:25N 37°57' E 023°38'0 0.0
2017-Sep-13 01:49N 37°57' E 023°38'0 0.0
2017-Sep-13 01:25N 37°57' E 023°38'0 0.0
2017-Sep-13 00:37N 37°57' E 023°38'0 0.0
2017-Sep-13 00:13N 37°57' E 023°38'0 0.0
2017-Sep-12 23:43N 37°57' E 023°38'0 0.0
2017-Sep-12 23:25N 37°57' E 023°38'0 0.0
2017-Sep-12 22:49N 37°57' E 023°38'0 0.0
2017-Sep-12 22:19N 37°57' E 023°38'0 0.0
2017-Sep-12 21:58N 37°57' E 023°38'0 0.0
2017-Sep-12 21:28N 37°57' E 023°38'0 0.0
2017-Sep-12 20:58N 37°57' E 023°38'0 0.0
2017-Sep-12 20:25N 37°57' E 023°38'0 0.0
2017-Sep-12 19:55N 37°57' E 023°38'0 0.0
2017-Sep-12 19:28N 37°57' E 023°38'0 0.0
2017-Sep-12 18:58N 37°57' E 023°38'0 0.0
2017-Sep-12 18:22N 37°57' E 023°38'0 0.2
2017-Sep-12 18:00N 37°57' E 023°38'714.1
2017-Sep-12 17:31N 37°50' E 023°40'1733.4
2017-Sep-12 17:00N 37°38' E 023°56'4535.0
2017-Sep-12 15:44N 37°18' E 024°46'835.1
2017-Sep-12 15:31N 37°13' E 024°54'1423.2
2017-Sep-12 14:53N 37°05' E 025°09'820.6
2017-Sep-12 14:31N 37°10' E 025°16'510.0
2017-Sep-12 14:01N 37°06' E 025°20'7 1.3
2017-Sep-12 08:41N 36°59' E 025°21'632.7
2017-Sep-12 08:31N 37°05' E 025°19'5 9.8
2017-Sep-12 08:01N 37°10' E 025°18'911.3
2017-Sep-12 07:14N 37°05' E 025°08'626.6
2017-Sep-12 07:00N 37°09' E 025°03'1633.0
2017-Sep-12 06:31N 37°19' E 024°46'4233.6
2017-Sep-12 05:15N 37°36' E 023°57'834.6
2017-Sep-12 05:01N 37°39' E 023°48'1631.5
2017-Sep-12 04:31N 37°52' E 023°37'4 8.0
2017-Sep-12 03:58N 37°57' E 023°38'0 0.0
2017-Sep-12 03:28N 37°57' E 023°38'0 0.0
2017-Sep-12 02:58N 37°57' E 023°38'0 0.0
2017-Sep-12 02:28N 37°57' E 023°38'  
Track history (hours):
 
Tides and Currents Weather Stations Pressure Air Temp Water Temp Dewpoint Dewpoint Depression Visibility Wind Speed Wind Dir Waves Ship Positions

Highspeed 4

Last reported at 2017-Sep-22 01:58 UTC. Time now 2017-Sep-22 04:37 UTC.
Position N 37°57' E 023°38'.

Length 93 m; draft 3.9 m.

Type: High speed craft. MMSI: 239658000.

Date/timePositionNaut miles runAvg speedWind from/ knotsBaromVisibWave heightAir tempDewpointWater temp
2017-Sep-22 01:58N 37°57' E 023°38'0 0.0
2017-Sep-22 01:28N 37°57' E 023°38'0 0.0
2017-Sep-22 00:58N 37°57' E 023°38'0 0.0
2017-Sep-22 00:28N 37°57' E 023°38'0 0.0
2017-Sep-21 23:58N 37°57' E 023°38'0 0.0
2017-Sep-21 23:28N 37°57' E 023°38'0 0.0
2017-Sep-21 22:58N 37°57' E 023°38'0 0.0
2017-Sep-21 22:28N 37°57' E 023°38'0 0.0
2017-Sep-21 21:58N 37°57' E 023°38'0 0.0
2017-Sep-21 21:28N 37°57' E 023°38'0 0.0
2017-Sep-21 20:58N 37°57' E 023°38'0 0.0
2017-Sep-21 20:28N 37°57' E 023°38'0 0.0
2017-Sep-21 19:58N 37°57' E 023°38'0 0.0
2017-Sep-21 19:28N 37°57' E 023°38'0 0.0
2017-Sep-21 18:58N 37°57' E 023°38'0 0.0
2017-Sep-21 18:28N 37°57' E 023°38'0 0.8
2017-Sep-21 18:01N 37°56' E 023°38'918.1
2017-Sep-21 17:31N 37°48' E 023°41'5933.6
2017-Sep-21 15:45N 37°18' E 024°46'934.6
2017-Sep-21 15:31N 37°13' E 024°54'1422.0
2017-Sep-21 14:52N 37°05' E 025°09'821.5
2017-Sep-21 14:31N 37°10' E 025°16'611.1
2017-Sep-21 14:01N 37°07' E 025°22'8 1.4
2017-Sep-21 08:37N 36°59' E 025°21'436.9
2017-Sep-21 08:31N 37°03' E 025°19'612.8
2017-Sep-21 08:01N 37°09' E 025°19'912.9
2017-Sep-21 07:18N 37°05' E 025°08'929.3
2017-Sep-21 07:00N 37°10' E 025°00'5234.1
2017-Sep-21 05:28N 37°35' E 024°02'1634.7
2017-Sep-21 05:01N 37°40' E 023°43'1631.6
2017-Sep-21 04:30N 37°55' E 023°36'2 4.1
2017-Sep-21 03:59N 37°57' E 023°38'0 0.0
2017-Sep-21 03:29N 37°57' E 023°38'0 0.0
2017-Sep-21 02:59N 37°57' E 023°38'0 0.0
2017-Sep-21 02:29N 37°57' E 023°38'0 0.0
2017-Sep-21 01:59N 37°57' E 023°38'0 0.0
2017-Sep-21 01:29N 37°57' E 023°38'0 0.0
2017-Sep-21 00:59N 37°57' E 023°38'0 0.0
2017-Sep-21 00:29N 37°57' E 023°38'0 0.0
2017-Sep-20 23:59N 37°57' E 023°38'0 0.0
2017-Sep-20 23:26N 37°57' E 023°38'0 0.0
2017-Sep-20 22:59N 37°57' E 023°38'0 0.0
2017-Sep-20 22:29N 37°57' E 023°38'0 0.0
2017-Sep-20 21:59N 37°57' E 023°38'0 0.0
2017-Sep-20 21:29N 37°57' E 023°38'0 0.0
2017-Sep-20 20:59N 37°57' E 023°38'0 0.0
2017-Sep-20 20:29N 37°57' E 023°38'0 0.0
2017-Sep-20 19:59N 37°57' E 023°38'0 0.0
2017-Sep-20 19:29N 37°57' E 023°38'0 0.0
2017-Sep-20 18:59N 37°57' E 023°38'0 0.0
2017-Sep-20 18:29N 37°57' E 023°38'1 2.2
2017-Sep-20 18:01N 37°56' E 023°37'1631.2
2017-Sep-20 17:31N 37°42' E 023°45'1733.4
2017-Sep-20 17:00N 37°37' E 024°05'3730.6
2017-Sep-20 15:48N 37°19' E 024°45'1034.3
2017-Sep-20 15:31N 37°13' E 024°56'1215.7
2017-Sep-20 14:46N 37°06' E 025°08'1114.8
2017-Sep-20 14:01N 37°06' E 025°22'7 1.4
2017-Sep-20 08:39N 36°59' E 025°21'534.3
2017-Sep-20 08:31N 37°04' E 025°19'612.4
2017-Sep-20 08:00N 37°10' E 025°18'812.1
2017-Sep-20 07:19N 37°05' E 025°09'724.2
2017-Sep-20 07:01N 37°10' E 025°02'5433.7
2017-Sep-20 05:24N 37°35' E 024°01'1434.7
2017-Sep-20 05:01N 37°39' E 023°45'1632.3
2017-Sep-20 04:31N 37°54' E 023°36'4 6.6
2017-Sep-20 03:58N 37°57' E 023°38'0 0.0
2017-Sep-20 03:28N 37°57' E 023°38'0 0.0
2017-Sep-20 02:58N 37°57' E 023°38'0 0.0
2017-Sep-20 02:28N 37°57' E 023°38'0 0.0
2017-Sep-20 01:58N 37°57' E 023°38'0 0.0
2017-Sep-20 01:28N 37°57' E 023°38'0 0.0
2017-Sep-20 00:58N 37°57' E 023°38'0 0.0
2017-Sep-20 00:28N 37°57' E 023°38'0 0.0
2017-Sep-19 23:58N 37°57' E 023°38'0 0.0
2017-Sep-19 23:28N 37°57' E 023°38'0 0.0
2017-Sep-19 22:58N 37°57' E 023°38'0 0.0
2017-Sep-19 22:28N 37°57' E 023°38'0 0.0
2017-Sep-19 21:58N 37°57' E 023°38'0 0.0
2017-Sep-19 21:28N 37°57' E 023°38'0 0.0
2017-Sep-19 20:58N 37°57' E 023°38'0 0.0
2017-Sep-19 20:28N 37°57' E 023°38'0 0.0
2017-Sep-19 19:58N 37°57' E 023°38'0 0.0
2017-Sep-19 19:28N 37°57' E 023°38'0 0.0
2017-Sep-19 18:58N 37°57' E 023°38'0 0.0
2017-Sep-19 18:28N 37°57' E 023°38'0 0.1
2017-Sep-19 18:00N 37°57' E 023°38'611.9
2017-Sep-19 17:31N 37°51' E 023°40'1733.6
2017-Sep-19 17:00N 37°39' E 023°54'1835.5
2017-Sep-19 16:30N 37°32' E 024°15'2835.1
2017-Sep-19 15:42N 37°18' E 024°46'735.6
2017-Sep-19 15:31N 37°14' E 024°53'1519.5
2017-Sep-19 14:44N 37°05' E 025°08'521.9
2017-Sep-19 14:31N 37°09' E 025°12'816.7
2017-Sep-19 14:01N 37°07' E 025°22'7 1.4
2017-Sep-19 08:39N 36°59' E 025°21'533.7
2017-Sep-19 08:31N 37°04' E 025°18'611.2
2017-Sep-19 08:01N 37°09' E 025°19'912.2
2017-Sep-19 07:15N 37°05' E 025°08'627.7
2017-Sep-19 07:01N 37°09' E 025°02'5434.0
2017-Sep-19 05:25N 37°35' E 024°02'1434.6
2017-Sep-19 05:00N 37°39' E 023°45'1633.3
2017-Sep-19 04:31N 37°54' E 023°36'3 6.0
2017-Sep-19 03:59N 37°57' E 023°38'0 0.0
2017-Sep-19 03:29N 37°57' E 023°38'0 0.0
2017-Sep-19 02:59N 37°57' E 023°38'0 0.0
2017-Sep-19 02:29N 37°57' E 023°38'0 0.0
2017-Sep-19 01:59N 37°57' E 023°38'0 0.0
2017-Sep-19 01:29N 37°57' E 023°38'0 0.0
2017-Sep-19 00:59N 37°57' E 023°38'0 0.0
2017-Sep-19 00:29N 37°57' E 023°38'0 0.0
2017-Sep-18 23:59N 37°57' E 023°38'0 0.0
2017-Sep-18 23:29N 37°57' E 023°38'0 0.0
2017-Sep-18 22:59N 37°57' E 023°38'0 0.0
2017-Sep-18 22:29N 37°57' E 023°38'0 0.0
2017-Sep-18 21:59N 37°57' E 023°38'0 0.0
2017-Sep-18 21:29N 37°57' E 023°38'0 0.0
2017-Sep-18 20:59N 37°57' E 023°38'0 0.0
2017-Sep-18 20:29N 37°57' E 023°38'0 0.0
2017-Sep-18 19:59N 37°57' E 023°38'0 0.0
2017-Sep-18 19:29N 37°57' E 023°38'0 0.0
2017-Sep-18 18:59N 37°57' E 023°38'0 0.0
2017-Sep-18 18:31N 37°57' E 023°38'0 0.0
2017-Sep-18 18:01N 37°57' E 023°38'611.2
2017-Sep-18 17:31N 37°51' E 023°40'1733.5
2017-Sep-18 17:01N 37°39' E 023°54'4635.1
2017-Sep-18 15:42N 37°18' E 024°46'735.8
2017-Sep-18 15:31N 37°14' E 024°53'1520.5
2017-Sep-18 14:45N 37°05' E 025°08'522.0
2017-Sep-18 14:30N 37°09' E 025°13'815.7
2017-Sep-18 14:01N 37°07' E 025°22'7 1.4
2017-Sep-18 08:39N 36°59' E 025°21'534.2
2017-Sep-18 08:31N 37°04' E 025°19'611.4
2017-Sep-18 08:01N 37°09' E 025°18'916.2
2017-Sep-18 07:28N 37°05' E 025°09'612.1
2017-Sep-18 07:00N 37°08' E 025°03'1734.9
2017-Sep-18 06:30N 37°19' E 024°46'3534.4
2017-Sep-18 05:30N 37°34' E 024°06'1735.0
2017-Sep-18 05:00N 37°39' E 023°46'1733.0
2017-Sep-18 04:30N 37°54' E 023°36'3 5.7
2017-Sep-18 03:59N 37°57' E 023°38'0 0.0
2017-Sep-18 03:26N 37°57' E 023°38'0 0.0
2017-Sep-18 02:56N 37°57' E 023°38'0 0.0
2017-Sep-18 02:29N 37°57' E 023°38'0 0.0
2017-Sep-18 01:59N 37°57' E 023°38'0 0.0
2017-Sep-18 01:29N 37°57' E 023°38'0 0.0
2017-Sep-18 00:59N 37°57' E 023°38'0 0.0
2017-Sep-18 00:23N 37°57' E 023°38'0 0.0
2017-Sep-17 23:59N 37°57' E 023°38'0 0.0
2017-Sep-17 23:26N 37°57' E 023°38'0 0.0
2017-Sep-17 22:59N 37°57' E 023°38'0 0.0
2017-Sep-17 22:29N 37°57' E 023°38'0 0.0
2017-Sep-17 21:59N 37°57' E 023°38'0 0.0
2017-Sep-17 21:29N 37°57' E 023°38'0 0.0
2017-Sep-17 20:59N 37°57' E 023°38'0 0.0
2017-Sep-17 20:29N 37°57' E 023°38'0 0.0
2017-Sep-17 19:59N 37°57' E 023°38'0 0.0
2017-Sep-17 19:29N 37°57' E 023°38'0 0.0
2017-Sep-17 18:59N 37°57' E 023°38'0 0.0
2017-Sep-17 18:29N 37°57' E 023°38'0 0.2
2017-Sep-17 18:01N 37°57' E 023°38'919.0
2017-Sep-17 17:31N 37°47' E 023°42'1632.5
2017-Sep-17 17:01N 37°37' E 023°57'4333.8
2017-Sep-17 15:45N 37°18' E 024°46'834.6
2017-Sep-17 15:31N 37°13' E 024°54'1417.6
2017-Sep-17 14:42N 37°05' E 025°08'522.7
2017-Sep-17 14:28N 37°09' E 025°13'817.8
2017-Sep-17 14:01N 37°06' E 025°22'7 1.4
2017-Sep-17 08:39N 36°59' E 025°21'535.7
2017-Sep-17 08:31N 37°04' E 025°19'612.0
2017-Sep-17 08:01N 37°10' E 025°18'911.8
2017-Sep-17 07:14N 37°05' E 025°08'627.2
2017-Sep-17 07:01N 37°09' E 025°02'5534.0
2017-Sep-17 05:24N 37°35' E 024°02'1435.1
2017-Sep-17 05:00N 37°40' E 023°45'1632.5
2017-Sep-17 04:31N 37°54' E 023°36'3 6.1
2017-Sep-17 04:00N 37°57' E 023°38'0 0.0
2017-Sep-17 03:30N 37°57' E 023°38'0 0.0
2017-Sep-17 03:00N 37°57' E 023°38'0 0.0
2017-Sep-17 02:30N 37°57' E 023°38'0 0.0
2017-Sep-17 02:00N 37°57' E 023°38'0 0.0
2017-Sep-17 01:30N 37°57' E 023°38'0 0.0
2017-Sep-17 01:00N 37°57' E 023°38'0 0.0
2017-Sep-17 00:30N 37°57' E 023°38'0 0.0
2017-Sep-17 00:00N 37°57' E 023°38'0 0.0
2017-Sep-16 23:30N 37°57' E 023°38'0 0.0
2017-Sep-16 23:00N 37°57' E 023°38'0 0.0
2017-Sep-16 22:30N 37°57' E 023°38'0 0.0
2017-Sep-16 22:00N 37°57' E 023°38'0 0.0
2017-Sep-16 21:30N 37°57' E 023°38'0 0.0
2017-Sep-16 21:00N 37°57' E 023°38'0 0.0
2017-Sep-16 20:30N 37°57' E 023°38'0 0.0
2017-Sep-16 20:00N 37°57' E 023°38'0 0.0
2017-Sep-16 19:30N 37°57' E 023°38'0 0.0
2017-Sep-16 19:00N 37°57' E 023°38'0 0.0
2017-Sep-16 18:30N 37°57' E 023°38'0 0.0
2017-Sep-16 18:00N 37°57' E 023°38'5 9.7
2017-Sep-16 17:31N 37°52' E 023°39'1734.3
2017-Sep-16 17:00N 37°39' E 023°53'4735.5
2017-Sep-16 15:41N 37°17' E 024°46'636.0
2017-Sep-16 15:31N 37°14' E 024°52'1619.3
2017-Sep-16 14:42N 37°05' E 025°08'522.3
2017-Sep-16 14:29N 37°09' E 025°12'817.6
2017-Sep-16 14:01N 37°06' E 025°22'7 1.4
2017-Sep-16 08:38N 36°59' E 025°21'434.7
2017-Sep-16 08:31N 37°03' E 025°19'612.0
2017-Sep-16 08:01N 37°09' E 025°19'912.5
2017-Sep-16 07:17N 37°05' E 025°09'725.6
2017-Sep-16 07:01N 37°09' E 025°01'5433.8
2017-Sep-16 05:25N 37°35' E 024°02'1434.5
2017-Sep-16 05:00N 37°40' E 023°45'1632.2
2017-Sep-16 04:31N 37°54' E 023°36'3 5.1
2017-Sep-16 03:52N 37°57' E 023°38'0 0.0
2017-Sep-16 03:28N 37°57' E 023°38'0 0.0
2017-Sep-16 02:58N 37°57' E 023°38'0 0.0
2017-Sep-16 02:28N 37°57' E 023°38'0 0.0
2017-Sep-16 01:58N 37°57' E 023°38'0 0.0
2017-Sep-16 01:28N 37°57' E 023°38'0 0.0
2017-Sep-16 00:58N 37°57' E 023°38'0 0.0
2017-Sep-16 00:28N 37°57' E 023°38'0 0.0
2017-Sep-15 23:58N 37°57' E 023°38'0 0.0
2017-Sep-15 23:28N 37°57' E 023°38'0 0.0
2017-Sep-15 22:58N 37°57' E 023°38'0 0.0
2017-Sep-15 22:28N 37°57' E 023°38'0 0.0
2017-Sep-15 21:58N 37°57' E 023°38'0 0.0
2017-Sep-15 21:25N 37°57' E 023°38'0 0.0
2017-Sep-15 20:58N 37°57' E 023°38'0 0.0
2017-Sep-15 20:28N 37°57' E 023°38'0 0.0
2017-Sep-15 19:58N 37°57' E 023°38'0 0.0
2017-Sep-15 19:28N 37°57' E 023°38'0 0.0
2017-Sep-15 18:58N 37°57' E 023°38'0 0.0
2017-Sep-15 18:28N 37°57' E 023°38'0 0.0
2017-Sep-15 18:00N 37°57' E 023°38'714.3
2017-Sep-15 17:31N 37°50' E 023°40'1733.4
2017-Sep-15 17:00N 37°38' E 023°55'4534.8
2017-Sep-15 15:44N 37°18' E 024°46'835.2
2017-Sep-15 15:31N 37°14' E 024°53'1518.9
2017-Sep-15 14:44N 37°05' E 025°08'521.4
2017-Sep-15 14:30N 37°09' E 025°12'817.1
2017-Sep-15 14:00N 37°06' E 025°22'7 1.4
2017-Sep-15 08:38N 36°59' E 025°21'435.0
2017-Sep-15 08:31N 37°03' E 025°19'612.8
2017-Sep-15 08:01N 37°10' E 025°18'912.8
2017-Sep-15 07:18N 37°05' E 025°08'722.9
2017-Sep-15 07:01N 37°09' E 025°02'5533.5
2017-Sep-15 05:22N 37°35' E 024°01'1234.2
2017-Sep-15 05:00N 37°39' E 023°46'1632.9
2017-Sep-15 04:31N 37°53' E 023°36'4 7.4
2017-Sep-15 04:00N 37°57' E 023°38'0 0.0
2017-Sep-15 03:27N 37°57' E 023°38'0 0.0
2017-Sep-15 03:00N 37°57' E 023°38'0 0.0
2017-Sep-15 02:30N 37°57' E 023°38'0 0.0
2017-Sep-15 01:57N 37°57' E 023°38'0 0.0
2017-Sep-15 01:30N 37°57' E 023°38'0 0.0
2017-Sep-15 01:00N 37°57' E 023°38'0 0.0
2017-Sep-15 00:30N 37°57' E 023°38'0 0.0
2017-Sep-15 00:00N 37°57' E 023°38'0 0.0
2017-Sep-14 23:30N 37°57' E 023°38'0 0.0
2017-Sep-14 23:00N 37°57' E 023°38'0 0.0
2017-Sep-14 22:30N 37°57' E 023°38'0 0.0
2017-Sep-14 22:00N 37°57' E 023°38'0 0.0
2017-Sep-14 21:27N 37°57' E 023°38'0 0.0
2017-Sep-14 21:00N 37°57' E 023°38'0 0.0
2017-Sep-14 20:27N 37°57' E 023°38'0 0.0
2017-Sep-14 20:00N 37°57' E 023°38'0 0.0
2017-Sep-14 19:30N 37°57' E 023°38'0 0.0
2017-Sep-14 19:00N 37°57' E 023°38'0 0.0
2017-Sep-14 18:30N 37°57' E 023°38'0 0.0
2017-Sep-14 18:01N 37°57' E 023°38'611.7
2017-Sep-14 17:31N 37°51' E 023°40'1733.7
2017-Sep-14 17:01N 37°39' E 023°54'4635.1
2017-Sep-14 15:42N 37°18' E 024°46'735.4
2017-Sep-14 15:31N 37°14' E 024°53'1519.6
2017-Sep-14 14:43N 37°05' E 025°08'521.5
2017-Sep-14 14:30N 37°09' E 025°12'816.9
2017-Sep-14 14:01N 37°06' E 025°22'7 1.3
2017-Sep-14 08:37N 36°59' E 025°21'436.6
2017-Sep-14 08:30N 37°03' E 025°19'713.2
2017-Sep-14 08:01N 37°09' E 025°19'912.0
2017-Sep-14 07:16N 37°05' E 025°09'727.9
2017-Sep-14 07:01N 37°09' E 025°01'5433.9
2017-Sep-14 05:25N 37°35' E 024°01'1434.8
2017-Sep-14 05:00N 37°40' E 023°44'1531.4
2017-Sep-14 04:30N 37°54' E 023°37'3 1.9
2017-Sep-14 03:03N 37°57' E 023°38'0 0.0
2017-Sep-13 23:27N 37°57' E 023°38'0 0.0
2017-Sep-13 19:18N 37°57' E 023°38'0 0.0
2017-Sep-13 18:51N 37°57' E 023°38'0 0.0
2017-Sep-13 18:30N 37°57' E 023°38'0 0.0
2017-Sep-13 18:00N 37°57' E 023°38'611.7
2017-Sep-13 17:31N 37°51' E 023°39'1733.7
2017-Sep-13 17:00N 37°39' E 023°54'4635.1
2017-Sep-13 15:41N 37°18' E 024°46'736.0
2017-Sep-13 15:31N 37°14' E 024°53'1520.0
2017-Sep-13 14:44N 37°05' E 025°09'519.2
2017-Sep-13 14:30N 37°09' E 025°12'917.8
2017-Sep-13 14:01N 37°06' E 025°22'7 1.3
2017-Sep-13 08:38N 36°59' E 025°21'536.2
2017-Sep-13 08:31N 37°03' E 025°19'713.4
2017-Sep-13 08:01N 37°10' E 025°19'1013.1
2017-Sep-13 07:15N 37°05' E 025°09'626.8
2017-Sep-13 07:01N 37°09' E 025°02'5934.2
2017-Sep-13 05:18N 37°36' E 023°57'1035.1
2017-Sep-13 05:00N 37°40' E 023°45'1631.6
2017-Sep-13 04:31N 37°54' E 023°36'3 3.6
2017-Sep-13 03:37N 37°57' E 023°38'0 0.0
2017-Sep-13 03:25N 37°57' E 023°38'0 0.0
2017-Sep-13 02:55N 37°57' E 023°38'0 0.0
2017-Sep-13 02:25N 37°57' E 023°38'0 0.0
2017-Sep-13 01:49N 37°57' E 023°38'0 0.0
2017-Sep-13 01:25N 37°57' E 023°38'0 0.0
2017-Sep-13 00:37N 37°57' E 023°38'0 0.0
2017-Sep-13 00:13N 37°57' E 023°38'0 0.0
2017-Sep-12 23:43N 37°57' E 023°38'0 0.0
2017-Sep-12 23:25N 37°57' E 023°38'0 0.0
2017-Sep-12 22:49N 37°57' E 023°38'0 0.0
2017-Sep-12 22:19N 37°57' E 023°38'0 0.0
2017-Sep-12 21:58N 37°57' E 023°38'0 0.0
2017-Sep-12 21:28N 37°57' E 023°38'0 0.0
2017-Sep-12 20:58N 37°57' E 023°38'0 0.0
2017-Sep-12 20:25N 37°57' E 023°38'0 0.0
2017-Sep-12 19:55N 37°57' E 023°38'0 0.0
2017-Sep-12 19:28N 37°57' E 023°38'0 0.0
2017-Sep-12 18:58N 37°57' E 023°38'0 0.0
2017-Sep-12 18:22N 37°57' E 023°38'0 0.2
2017-Sep-12 18:00N 37°57' E 023°38'714.1
2017-Sep-12 17:31N 37°50' E 023°40'1733.4
2017-Sep-12 17:00N 37°38' E 023°56'4535.0
2017-Sep-12 15:44N 37°18' E 024°46'835.1
2017-Sep-12 15:31N 37°13' E 024°54'1423.2
2017-Sep-12 14:53N 37°05' E 025°09'820.6
2017-Sep-12 14:31N 37°10' E 025°16'510.0
2017-Sep-12 14:01N 37°06' E 025°20'7 1.3
2017-Sep-12 08:41N 36°59' E 025°21'632.7
2017-Sep-12 08:31N 37°05' E 025°19'5 9.8
2017-Sep-12 08:01N 37°10' E 025°18'911.3
2017-Sep-12 07:14N 37°05' E 025°08'626.6
2017-Sep-12 07:00N 37°09' E 025°03'1633.0
2017-Sep-12 06:31N 37°19' E 024°46'4233.6
2017-Sep-12 05:15N 37°36' E 023°57'834.6
2017-Sep-12 05:01N 37°39' E 023°48'1631.5
2017-Sep-12 04:31N 37°52' E 023°37'4 8.0
2017-Sep-12 03:58N 37°57' E 023°38'0 0.0
2017-Sep-12 03:28N 37°57' E 023°38'0 0.0
2017-Sep-12 02:58N 37°57' E 023°38'0 0.0
2017-Sep-12 02:28N 37°57' E 023°38'  

Dump ship's entire track history